sensor_id;sensor_type;location;lat;lon;timestamp;P1;durP1;ratioP1;P2;durP2;ratioP2
21152;SDS011;10734;44.792;20.482;2023-04-25T00:01:03;7.53;;;5.03;;
21152;SDS011;10734;44.792;20.482;2023-04-25T00:03:31;5.13;;;4.38;;
21152;SDS011;10734;44.792;20.482;2023-04-25T00:05:58;4.88;;;4.32;;
21152;SDS011;10734;44.792;20.482;2023-04-25T00:08:29;6.82;;;4.50;;
21152;SDS011;10734;44.792;20.482;2023-04-25T00:10:56;6.60;;;3.90;;
21152;SDS011;10734;44.792;20.482;2023-04-25T00:13:23;4.90;;;3.88;;
21152;SDS011;10734;44.792;20.482;2023-04-25T00:15:52;6.32;;;5.05;;
21152;SDS011;10734;44.792;20.482;2023-04-25T00:18:19;6.88;;;4.57;;
21152;SDS011;10734;44.792;20.482;2023-04-25T00:20:46;4.50;;;4.03;;
21152;SDS011;10734;44.792;20.482;2023-04-25T00:23:14;8.80;;;5.38;;
21152;SDS011;10734;44.792;20.482;2023-04-25T00:25:44;7.07;;;5.07;;
21152;SDS011;10734;44.792;20.482;2023-04-25T00:28:11;5.75;;;4.13;;
21152;SDS011;10734;44.792;20.482;2023-04-25T00:30:38;6.22;;;4.57;;
21152;SDS011;10734;44.792;20.482;2023-04-25T00:33:05;8.27;;;5.78;;
21152;SDS011;10734;44.792;20.482;2023-04-25T00:35:32;6.15;;;5.13;;
21152;SDS011;10734;44.792;20.482;2023-04-25T00:37:59;6.60;;;5.30;;
21152;SDS011;10734;44.792;20.482;2023-04-25T00:40:25;7.35;;;5.50;;
21152;SDS011;10734;44.792;20.482;2023-04-25T00:42:52;6.32;;;5.25;;
21152;SDS011;10734;44.792;20.482;2023-04-25T00:45:19;9.23;;;6.18;;
21152;SDS011;10734;44.792;20.482;2023-04-25T00:47:46;7.47;;;5.20;;
21152;SDS011;10734;44.792;20.482;2023-04-25T00:50:13;8.10;;;4.85;;
21152;SDS011;10734;44.792;20.482;2023-04-25T00:52:40;7.20;;;3.90;;
21152;SDS011;10734;44.792;20.482;2023-04-25T00:55:07;4.70;;;4.25;;
21152;SDS011;10734;44.792;20.482;2023-04-25T00:57:34;9.95;;;4.60;;
21152;SDS011;10734;44.792;20.482;2023-04-25T01:00:01;10.40;;;4.93;;
21152;SDS011;10734;44.792;20.482;2023-04-25T01:02:27;6.85;;;4.90;;
21152;SDS011;10734;44.792;20.482;2023-04-25T01:04:55;9.85;;;4.55;;
21152;SDS011;10734;44.792;20.482;2023-04-25T01:07:21;6.60;;;4.78;;
21152;SDS011;10734;44.792;20.482;2023-04-25T01:09:48;6.35;;;4.28;;
21152;SDS011;10734;44.792;20.482;2023-04-25T01:12:15;6.70;;;5.05;;
21152;SDS011;10734;44.792;20.482;2023-04-25T01:14:42;7.78;;;5.32;;
21152;SDS011;10734;44.792;20.482;2023-04-25T01:17:09;7.75;;;4.78;;
21152;SDS011;10734;44.792;20.482;2023-04-25T01:19:35;7.10;;;6.32;;
21152;SDS011;10734;44.792;20.482;2023-04-25T01:22:02;10.18;;;5.90;;
21152;SDS011;10734;44.792;20.482;2023-04-25T01:24:32;8.80;;;6.90;;
21152;SDS011;10734;44.792;20.482;2023-04-25T01:27:02;7.03;;;6.10;;
21152;SDS011;10734;44.792;20.482;2023-04-25T01:29:29;9.35;;;6.20;;
21152;SDS011;10734;44.792;20.482;2023-04-25T01:31:56;8.68;;;6.45;;
21152;SDS011;10734;44.792;20.482;2023-04-25T01:34:24;8.95;;;6.00;;
21152;SDS011;10734;44.792;20.482;2023-04-25T01:36:51;6.47;;;5.47;;
21152;SDS011;10734;44.792;20.482;2023-04-25T01:39:19;7.22;;;4.85;;
21152;SDS011;10734;44.792;20.482;2023-04-25T01:41:46;8.13;;;5.50;;
21152;SDS011;10734;44.792;20.482;2023-04-25T01:44:13;8.48;;;5.25;;
21152;SDS011;10734;44.792;20.482;2023-04-25T01:46:40;7.47;;;4.63;;
21152;SDS011;10734;44.792;20.482;2023-04-25T01:49:07;8.55;;;5.25;;
21152;SDS011;10734;44.792;20.482;2023-04-25T01:51:33;7.97;;;6.15;;
21152;SDS011;10734;44.792;20.482;2023-04-25T01:54:00;6.30;;;5.10;;
21152;SDS011;10734;44.792;20.482;2023-04-25T01:56:30;7.18;;;5.20;;
21152;SDS011;10734;44.792;20.482;2023-04-25T01:58:57;9.15;;;4.85;;
21152;SDS011;10734;44.792;20.482;2023-04-25T02:01:24;6.80;;;5.05;;
21152;SDS011;10734;44.792;20.482;2023-04-25T02:03:50;8.80;;;6.38;;
21152;SDS011;10734;44.792;20.482;2023-04-25T02:06:17;6.72;;;4.47;;
21152;SDS011;10734;44.792;20.482;2023-04-25T02:08:44;5.75;;;4.68;;
21152;SDS011;10734;44.792;20.482;2023-04-25T02:11:11;6.28;;;5.20;;
21152;SDS011;10734;44.792;20.482;2023-04-25T02:13:37;6.70;;;5.00;;
21152;SDS011;10734;44.792;20.482;2023-04-25T02:16:04;6.22;;;5.15;;
21152;SDS011;10734;44.792;20.482;2023-04-25T02:18:30;7.80;;;5.05;;
21152;SDS011;10734;44.792;20.482;2023-04-25T02:20:58;8.00;;;5.35;;
21152;SDS011;10734;44.792;20.482;2023-04-25T02:23:25;6.13;;;5.13;;
21152;SDS011;10734;44.792;20.482;2023-04-25T02:25:52;6.90;;;5.72;;
21152;SDS011;10734;44.792;20.482;2023-04-25T02:28:19;6.65;;;5.93;;
21152;SDS011;10734;44.792;20.482;2023-04-25T02:30:45;8.93;;;6.55;;
21152;SDS011;10734;44.792;20.482;2023-04-25T02:33:12;8.85;;;6.72;;
21152;SDS011;10734;44.792;20.482;2023-04-25T02:35:38;7.30;;;6.30;;
21152;SDS011;10734;44.792;20.482;2023-04-25T02:38:05;10.15;;;6.22;;
21152;SDS011;10734;44.792;20.482;2023-04-25T02:40:31;8.00;;;6.80;;
21152;SDS011;10734;44.792;20.482;2023-04-25T02:42:58;8.13;;;6.70;;
21152;SDS011;10734;44.792;20.482;2023-04-25T02:45:24;8.02;;;6.28;;
21152;SDS011;10734;44.792;20.482;2023-04-25T02:47:51;9.15;;;6.85;;
21152;SDS011;10734;44.792;20.482;2023-04-25T02:50:17;11.13;;;6.18;;
21152;SDS011;10734;44.792;20.482;2023-04-25T02:52:44;11.70;;;6.20;;
21152;SDS011;10734;44.792;20.482;2023-04-25T02:55:12;11.10;;;5.80;;
21152;SDS011;10734;44.792;20.482;2023-04-25T02:57:39;8.27;;;5.28;;
21152;SDS011;10734;44.792;20.482;2023-04-25T03:00:05;4.90;;;4.38;;
21152;SDS011;10734;44.792;20.482;2023-04-25T03:02:32;6.05;;;4.65;;
21152;SDS011;10734;44.792;20.482;2023-04-25T03:04:59;6.72;;;5.35;;
21152;SDS011;10734;44.792;20.482;2023-04-25T03:07:26;8.30;;;5.65;;
21152;SDS011;10734;44.792;20.482;2023-04-25T03:09:52;6.53;;;4.97;;
21152;SDS011;10734;44.792;20.482;2023-04-25T03:12:19;10.27;;;5.40;;
21152;SDS011;10734;44.792;20.482;2023-04-25T03:14:45;8.63;;;4.97;;
21152;SDS011;10734;44.792;20.482;2023-04-25T03:17:12;9.65;;;5.35;;
21152;SDS011;10734;44.792;20.482;2023-04-25T03:19:39;5.75;;;4.60;;
21152;SDS011;10734;44.792;20.482;2023-04-25T03:22:05;7.28;;;4.60;;
21152;SDS011;10734;44.792;20.482;2023-04-25T03:24:32;7.15;;;4.57;;
21152;SDS011;10734;44.792;20.482;2023-04-25T03:26:58;9.73;;;4.78;;
21152;SDS011;10734;44.792;20.482;2023-04-25T03:29:25;7.88;;;5.13;;
21152;SDS011;10734;44.792;20.482;2023-04-25T03:31:53;6.05;;;4.50;;
21152;SDS011;10734;44.792;20.482;2023-04-25T03:34:20;8.18;;;4.50;;
21152;SDS011;10734;44.792;20.482;2023-04-25T03:36:47;10.20;;;5.18;;
21152;SDS011;10734;44.792;20.482;2023-04-25T03:39:14;9.15;;;4.57;;
21152;SDS011;10734;44.792;20.482;2023-04-25T03:41:41;7.82;;;4.20;;
21152;SDS011;10734;44.792;20.482;2023-04-25T03:44:07;7.40;;;4.85;;
21152;SDS011;10734;44.792;20.482;2023-04-25T03:46:34;8.73;;;4.57;;
21152;SDS011;10734;44.792;20.482;2023-04-25T03:49:00;5.97;;;4.47;;
21152;SDS011;10734;44.792;20.482;2023-04-25T03:51:27;5.88;;;4.30;;
21152;SDS011;10734;44.792;20.482;2023-04-25T03:53:53;6.72;;;4.80;;
21152;SDS011;10734;44.792;20.482;2023-04-25T03:56:20;9.10;;;4.90;;
21152;SDS011;10734;44.792;20.482;2023-04-25T03:58:47;8.32;;;4.90;;
21152;SDS011;10734;44.792;20.482;2023-04-25T04:01:13;6.28;;;4.15;;
21152;SDS011;10734;44.792;20.482;2023-04-25T04:03:40;4.63;;;4.15;;
21152;SDS011;10734;44.792;20.482;2023-04-25T04:06:07;7.70;;;4.60;;
21152;SDS011;10734;44.792;20.482;2023-04-25T04:08:33;6.13;;;4.40;;
21152;SDS011;10734;44.792;20.482;2023-04-25T04:11:00;7.80;;;4.70;;
21152;SDS011;10734;44.792;20.482;2023-04-25T04:13:27;6.80;;;5.20;;
21152;SDS011;10734;44.792;20.482;2023-04-25T04:15:53;9.48;;;4.80;;
21152;SDS011;10734;44.792;20.482;2023-04-25T04:18:20;7.47;;;5.07;;
21152;SDS011;10734;44.792;20.482;2023-04-25T04:20:47;6.70;;;4.40;;
21152;SDS011;10734;44.792;20.482;2023-04-25T04:23:14;7.82;;;5.50;;
21152;SDS011;10734;44.792;20.482;2023-04-25T04:25:40;6.65;;;4.90;;
21152;SDS011;10734;44.792;20.482;2023-04-25T04:28:08;10.15;;;4.80;;
21152;SDS011;10734;44.792;20.482;2023-04-25T04:30:34;6.35;;;4.72;;
21152;SDS011;10734;44.792;20.482;2023-04-25T04:33:03;9.93;;;5.57;;
21152;SDS011;10734;44.792;20.482;2023-04-25T04:35:30;5.65;;;3.95;;
21152;SDS011;10734;44.792;20.482;2023-04-25T04:37:56;7.00;;;4.45;;
21152;SDS011;10734;44.792;20.482;2023-04-25T04:40:23;6.85;;;4.68;;
21152;SDS011;10734;44.792;20.482;2023-04-25T04:42:49;6.25;;;4.75;;
21152;SDS011;10734;44.792;20.482;2023-04-25T04:45:16;8.13;;;5.35;;
21152;SDS011;10734;44.792;20.482;2023-04-25T04:47:43;6.75;;;5.22;;
21152;SDS011;10734;44.792;20.482;2023-04-25T04:50:10;9.00;;;4.97;;
21152;SDS011;10734;44.792;20.482;2023-04-25T04:52:37;9.10;;;4.88;;
21152;SDS011;10734;44.792;20.482;2023-04-25T04:55:04;7.80;;;5.13;;
21152;SDS011;10734;44.792;20.482;2023-04-25T04:57:31;8.88;;;5.45;;
21152;SDS011;10734;44.792;20.482;2023-04-25T04:59:59;10.45;;;7.10;;
21152;SDS011;10734;44.792;20.482;2023-04-25T05:02:25;8.05;;;6.18;;
21152;SDS011;10734;44.792;20.482;2023-04-25T05:04:52;10.60;;;6.85;;
21152;SDS011;10734;44.792;20.482;2023-04-25T05:07:19;10.82;;;6.80;;
21152;SDS011;10734;44.792;20.482;2023-04-25T05:09:45;10.35;;;5.78;;
21152;SDS011;10734;44.792;20.482;2023-04-25T05:12:12;8.88;;;5.78;;
21152;SDS011;10734;44.792;20.482;2023-04-25T05:14:38;5.07;;;4.30;;
21152;SDS011;10734;44.792;20.482;2023-04-25T05:17:05;4.82;;;3.83;;
21152;SDS011;10734;44.792;20.482;2023-04-25T05:19:34;3.70;;;2.88;;
21152;SDS011;10734;44.792;20.482;2023-04-25T05:22:01;5.38;;;3.47;;
21152;SDS011;10734;44.792;20.482;2023-04-25T05:24:28;5.80;;;3.13;;
21152;SDS011;10734;44.792;20.482;2023-04-25T05:26:54;3.80;;;3.33;;
21152;SDS011;10734;44.792;20.482;2023-04-25T05:29:21;5.57;;;3.90;;
21152;SDS011;10734;44.792;20.482;2023-04-25T05:31:47;4.95;;;3.80;;
21152;SDS011;10734;44.792;20.482;2023-04-25T05:34:14;6.45;;;3.58;;
21152;SDS011;10734;44.792;20.482;2023-04-25T05:36:41;5.00;;;3.95;;
21152;SDS011;10734;44.792;20.482;2023-04-25T05:39:08;7.65;;;4.18;;
21152;SDS011;10734;44.792;20.482;2023-04-25T05:41:35;6.05;;;4.82;;
21152;SDS011;10734;44.792;20.482;2023-04-25T05:44:01;5.32;;;4.47;;
21152;SDS011;10734;44.792;20.482;2023-04-25T05:46:28;8.98;;;5.78;;
21152;SDS011;10734;44.792;20.482;2023-04-25T05:48:55;10.75;;;4.93;;
21152;SDS011;10734;44.792;20.482;2023-04-25T05:51:21;6.47;;;5.25;;
21152;SDS011;10734;44.792;20.482;2023-04-25T05:53:48;11.35;;;5.32;;
21152;SDS011;10734;44.792;20.482;2023-04-25T05:56:15;8.75;;;5.85;;
21152;SDS011;10734;44.792;20.482;2023-04-25T05:58:42;6.75;;;5.70;;
21152;SDS011;10734;44.792;20.482;2023-04-25T06:01:08;9.52;;;6.15;;
21152;SDS011;10734;44.792;20.482;2023-04-25T06:03:35;11.35;;;6.13;;
21152;SDS011;10734;44.792;20.482;2023-04-25T06:06:04;6.65;;;5.38;;
21152;SDS011;10734;44.792;20.482;2023-04-25T06:08:31;10.07;;;6.68;;
21152;SDS011;10734;44.792;20.482;2023-04-25T06:10:58;11.40;;;6.50;;
21152;SDS011;10734;44.792;20.482;2023-04-25T06:13:24;8.15;;;5.72;;
21152;SDS011;10734;44.792;20.482;2023-04-25T06:15:51;8.65;;;5.47;;
21152;SDS011;10734;44.792;20.482;2023-04-25T06:18:17;8.00;;;5.43;;
21152;SDS011;10734;44.792;20.482;2023-04-25T06:20:44;9.88;;;6.32;;
21152;SDS011;10734;44.792;20.482;2023-04-25T06:23:11;7.50;;;4.72;;
21152;SDS011;10734;44.792;20.482;2023-04-25T06:25:37;7.57;;;5.53;;
21152;SDS011;10734;44.792;20.482;2023-04-25T06:28:04;10.45;;;6.20;;
21152;SDS011;10734;44.792;20.482;2023-04-25T06:30:30;7.45;;;5.45;;
21152;SDS011;10734;44.792;20.482;2023-04-25T06:32:57;7.35;;;5.32;;
21152;SDS011;10734;44.792;20.482;2023-04-25T06:35:24;7.55;;;5.32;;
21152;SDS011;10734;44.792;20.482;2023-04-25T06:37:50;11.43;;;5.03;;
21152;SDS011;10734;44.792;20.482;2023-04-25T06:40:17;7.43;;;5.18;;
21152;SDS011;10734;44.792;20.482;2023-04-25T06:42:43;9.85;;;5.38;;
21152;SDS011;10734;44.792;20.482;2023-04-25T06:45:10;7.82;;;5.47;;
21152;SDS011;10734;44.792;20.482;2023-04-25T06:47:37;10.55;;;4.65;;
21152;SDS011;10734;44.792;20.482;2023-04-25T06:50:04;9.20;;;5.35;;
21152;SDS011;10734;44.792;20.482;2023-04-25T06:52:30;12.88;;;5.03;;
21152;SDS011;10734;44.792;20.482;2023-04-25T06:54:58;8.45;;;5.00;;
21152;SDS011;10734;44.792;20.482;2023-04-25T06:57:24;10.75;;;5.00;;
21152;SDS011;10734;44.792;20.482;2023-04-25T06:59:51;6.78;;;5.22;;
21152;SDS011;10734;44.792;20.482;2023-04-25T07:02:18;9.13;;;5.55;;
21152;SDS011;10734;44.792;20.482;2023-04-25T07:04:44;9.85;;;5.18;;
21152;SDS011;10734;44.792;20.482;2023-04-25T07:07:12;11.98;;;5.28;;
21152;SDS011;10734;44.792;20.482;2023-04-25T07:09:39;10.10;;;5.28;;
21152;SDS011;10734;44.792;20.482;2023-04-25T07:12:05;7.90;;;5.57;;
21152;SDS011;10734;44.792;20.482;2023-04-25T07:14:32;16.85;;;4.72;;
21152;SDS011;10734;44.792;20.482;2023-04-25T07:16:59;6.40;;;4.50;;
21152;SDS011;10734;44.792;20.482;2023-04-25T07:19:25;8.18;;;5.45;;
21152;SDS011;10734;44.792;20.482;2023-04-25T07:21:53;8.27;;;4.35;;
21152;SDS011;10734;44.792;20.482;2023-04-25T07:24:19;8.32;;;5.22;;
21152;SDS011;10734;44.792;20.482;2023-04-25T07:26:46;10.55;;;4.50;;
21152;SDS011;10734;44.792;20.482;2023-04-25T07:29:12;6.05;;;4.30;;
21152;SDS011;10734;44.792;20.482;2023-04-25T07:31:39;7.82;;;4.55;;
21152;SDS011;10734;44.792;20.482;2023-04-25T07:34:06;7.63;;;4.80;;
21152;SDS011;10734;44.792;20.482;2023-04-25T07:36:32;9.00;;;4.82;;
21152;SDS011;10734;44.792;20.482;2023-04-25T07:38:59;20.48;;;5.07;;
21152;SDS011;10734;44.792;20.482;2023-04-25T07:41:25;6.70;;;4.53;;
21152;SDS011;10734;44.792;20.482;2023-04-25T07:43:52;8.20;;;5.05;;
21152;SDS011;10734;44.792;20.482;2023-04-25T07:46:18;9.80;;;4.15;;
21152;SDS011;10734;44.792;20.482;2023-04-25T07:48:45;7.20;;;4.63;;
21152;SDS011;10734;44.792;20.482;2023-04-25T07:51:11;6.18;;;4.03;;
21152;SDS011;10734;44.792;20.482;2023-04-25T07:53:38;6.28;;;3.97;;
21152;SDS011;10734;44.792;20.482;2023-04-25T07:56:04;6.57;;;4.35;;
21152;SDS011;10734;44.792;20.482;2023-04-25T07:58:31;13.00;;;4.28;;
21152;SDS011;10734;44.792;20.482;2023-04-25T08:00:58;6.25;;;4.50;;
21152;SDS011;10734;44.792;20.482;2023-04-25T08:03:24;5.78;;;4.03;;
21152;SDS011;10734;44.792;20.482;2023-04-25T08:05:51;6.90;;;4.70;;
21152;SDS011;10734;44.792;20.482;2023-04-25T08:08:18;9.02;;;4.60;;
21152;SDS011;10734;44.792;20.482;2023-04-25T08:10:45;7.13;;;4.00;;
21152;SDS011;10734;44.792;20.482;2023-04-25T08:13:11;5.55;;;3.42;;
21152;SDS011;10734;44.792;20.482;2023-04-25T08:15:38;8.52;;;4.00;;
21152;SDS011;10734;44.792;20.482;2023-04-25T08:18:04;5.18;;;3.53;;
21152;SDS011;10734;44.792;20.482;2023-04-25T08:20:31;9.75;;;3.58;;
21152;SDS011;10734;44.792;20.482;2023-04-25T08:22:58;3.33;;;3.03;;
21152;SDS011;10734;44.792;20.482;2023-04-25T08:25:24;5.13;;;4.00;;
21152;SDS011;10734;44.792;20.482;2023-04-25T08:27:51;11.13;;;4.50;;
21152;SDS011;10734;44.792;20.482;2023-04-25T08:30:18;6.20;;;3.58;;
21152;SDS011;10734;44.792;20.482;2023-04-25T08:32:44;5.20;;;3.58;;
21152;SDS011;10734;44.792;20.482;2023-04-25T08:35:11;4.38;;;3.45;;
21152;SDS011;10734;44.792;20.482;2023-04-25T08:37:38;5.32;;;3.40;;
21152;SDS011;10734;44.792;20.482;2023-04-25T08:40:04;6.05;;;3.15;;
21152;SDS011;10734;44.792;20.482;2023-04-25T08:42:33;7.35;;;4.00;;
21152;SDS011;10734;44.792;20.482;2023-04-25T08:45:01;6.68;;;3.90;;
21152;SDS011;10734;44.792;20.482;2023-04-25T08:47:32;4.53;;;3.40;;
21152;SDS011;10734;44.792;20.482;2023-04-25T08:50:00;5.47;;;3.40;;
21152;SDS011;10734;44.792;20.482;2023-04-25T08:52:30;6.10;;;3.22;;
21152;SDS011;10734;44.792;20.482;2023-04-25T08:54:58;14.50;;;4.63;;
21152;SDS011;10734;44.792;20.482;2023-04-25T08:57:26;13.27;;;3.40;;
21152;SDS011;10734;44.792;20.482;2023-04-25T08:59:53;5.57;;;3.25;;
21152;SDS011;10734;44.792;20.482;2023-04-25T09:02:20;8.60;;;3.10;;
21152;SDS011;10734;44.792;20.482;2023-04-25T09:04:47;5.82;;;3.03;;
21152;SDS011;10734;44.792;20.482;2023-04-25T09:07:14;4.35;;;2.65;;
21152;SDS011;10734;44.792;20.482;2023-04-25T09:09:44;3.47;;;2.20;;
21152;SDS011;10734;44.792;20.482;2023-04-25T09:12:11;3.15;;;2.30;;
21152;SDS011;10734;44.792;20.482;2023-04-25T09:14:37;5.10;;;2.33;;
21152;SDS011;10734;44.792;20.482;2023-04-25T09:17:04;8.00;;;2.13;;
21152;SDS011;10734;44.792;20.482;2023-04-25T09:19:35;6.68;;;2.50;;
21152;SDS011;10734;44.792;20.482;2023-04-25T09:22:07;10.00;;;2.80;;
21152;SDS011;10734;44.792;20.482;2023-04-25T09:24:38;3.63;;;1.85;;
21152;SDS011;10734;44.792;20.482;2023-04-25T09:27:05;5.50;;;2.70;;
21152;SDS011;10734;44.792;20.482;2023-04-25T09:29:33;5.97;;;2.60;;
21152;SDS011;10734;44.792;20.482;2023-04-25T09:32:16;4.40;;;1.60;;
21152;SDS011;10734;44.792;20.482;2023-04-25T09:34:43;2.70;;;1.80;;
21152;SDS011;10734;44.792;20.482;2023-04-25T09:37:10;3.72;;;1.90;;
21152;SDS011;10734;44.792;20.482;2023-04-25T09:39:38;7.35;;;2.40;;
21152;SDS011;10734;44.792;20.482;2023-04-25T09:42:05;3.00;;;2.10;;
21152;SDS011;10734;44.792;20.482;2023-04-25T09:44:31;9.20;;;2.58;;
21152;SDS011;10734;44.792;20.482;2023-04-25T09:46:58;3.78;;;2.63;;
21152;SDS011;10734;44.792;20.482;2023-04-25T09:49:25;6.10;;;2.20;;
21152;SDS011;10734;44.792;20.482;2023-04-25T09:51:54;5.38;;;2.40;;
21152;SDS011;10734;44.792;20.482;2023-04-25T09:54:21;5.95;;;2.33;;
21152;SDS011;10734;44.792;20.482;2023-04-25T09:56:48;9.77;;;2.67;;
21152;SDS011;10734;44.792;20.482;2023-04-25T09:59:14;11.43;;;2.10;;
21152;SDS011;10734;44.792;20.482;2023-04-25T10:01:42;4.28;;;1.83;;
21152;SDS011;10734;44.792;20.482;2023-04-25T10:04:10;2.40;;;1.40;;
21152;SDS011;10734;44.792;20.482;2023-04-25T10:06:38;1.23;;;0.95;;
21152;SDS011;10734;44.792;20.482;2023-04-25T10:09:07;4.55;;;1.85;;
21152;SDS011;10734;44.792;20.482;2023-04-25T10:11:34;13.02;;;2.05;;
21152;SDS011;10734;44.792;20.482;2023-04-25T10:14:01;4.32;;;1.42;;
21152;SDS011;10734;44.792;20.482;2023-04-25T10:16:28;3.15;;;1.77;;
21152;SDS011;10734;44.792;20.482;2023-04-25T10:18:55;6.05;;;1.58;;
21152;SDS011;10734;44.792;20.482;2023-04-25T10:21:22;4.70;;;1.60;;
21152;SDS011;10734;44.792;20.482;2023-04-25T10:23:49;4.13;;;2.03;;
21152;SDS011;10734;44.792;20.482;2023-04-25T10:26:16;4.00;;;2.35;;
21152;SDS011;10734;44.792;20.482;2023-04-25T10:29:00;4.00;;;2.10;;
21152;SDS011;10734;44.792;20.482;2023-04-25T10:31:27;4.88;;;2.00;;
21152;SDS011;10734;44.792;20.482;2023-04-25T10:33:55;7.07;;;2.22;;
21152;SDS011;10734;44.792;20.482;2023-04-25T10:36:23;4.03;;;2.55;;
21152;SDS011;10734;44.792;20.482;2023-04-25T10:38:50;4.47;;;2.20;;
21152;SDS011;10734;44.792;20.482;2023-04-25T10:41:18;2.45;;;1.88;;
21152;SDS011;10734;44.792;20.482;2023-04-25T10:43:48;7.45;;;2.08;;
21152;SDS011;10734;44.792;20.482;2023-04-25T10:46:26;8.85;;;2.88;;
21152;SDS011;10734;44.792;20.482;2023-04-25T10:51:22;4.28;;;1.98;;
21152;SDS011;10734;44.792;20.482;2023-04-25T10:53:56;3.08;;;2.05;;
21152;SDS011;10734;44.792;20.482;2023-04-25T10:59:09;3.35;;;1.52;;
21152;SDS011;10734;44.792;20.482;2023-04-25T11:01:44;2.17;;;1.65;;
21152;SDS011;10734;44.792;20.482;2023-04-25T11:04:24;3.15;;;1.25;;
21152;SDS011;10734;44.792;20.482;2023-04-25T11:09:49;7.18;;;1.50;;
21152;SDS011;10734;44.792;20.482;2023-04-25T11:12:16;3.33;;;1.50;;
21152;SDS011;10734;44.792;20.482;2023-04-25T11:14:43;1.65;;;1.30;;
21152;SDS011;10734;44.792;20.482;2023-04-25T11:17:10;8.10;;;1.52;;
21152;SDS011;10734;44.792;20.482;2023-04-25T11:19:37;2.13;;;1.73;;
21152;SDS011;10734;44.792;20.482;2023-04-25T11:22:04;2.42;;;1.73;;
21152;SDS011;10734;44.792;20.482;2023-04-25T11:24:34;5.70;;;1.90;;
21152;SDS011;10734;44.792;20.482;2023-04-25T11:29:30;5.22;;;1.80;;
21152;SDS011;10734;44.792;20.482;2023-04-25T11:31:58;3.72;;;1.75;;
21152;SDS011;10734;44.792;20.482;2023-04-25T11:34:27;5.00;;;1.90;;
21152;SDS011;10734;44.792;20.482;2023-04-25T11:36:57;4.40;;;1.90;;
21152;SDS011;10734;44.792;20.482;2023-04-25T11:39:24;3.75;;;1.67;;
21152;SDS011;10734;44.792;20.482;2023-04-25T11:41:51;2.85;;;1.58;;
21152;SDS011;10734;44.792;20.482;2023-04-25T11:44:18;3.92;;;2.08;;
21152;SDS011;10734;44.792;20.482;2023-04-25T11:46:45;3.65;;;1.45;;
21152;SDS011;10734;44.792;20.482;2023-04-25T11:49:12;5.20;;;1.42;;
21152;SDS011;10734;44.792;20.482;2023-04-25T11:51:40;3.22;;;1.70;;
21152;SDS011;10734;44.792;20.482;2023-04-25T11:54:06;2.70;;;1.48;;
21152;SDS011;10734;44.792;20.482;2023-04-25T11:56:33;3.28;;;1.83;;
21152;SDS011;10734;44.792;20.482;2023-04-25T11:59:01;6.40;;;2.00;;
21152;SDS011;10734;44.792;20.482;2023-04-25T12:01:30;2.80;;;1.58;;
21152;SDS011;10734;44.792;20.482;2023-04-25T12:04:09;4.10;;;1.45;;
21152;SDS011;10734;44.792;20.482;2023-04-25T12:06:41;6.50;;;1.65;;
21152;SDS011;10734;44.792;20.482;2023-04-25T12:09:10;3.47;;;1.55;;
21152;SDS011;10734;44.792;20.482;2023-04-25T12:11:46;3.70;;;2.00;;
21152;SDS011;10734;44.792;20.482;2023-04-25T12:16:55;3.35;;;1.25;;
21152;SDS011;10734;44.792;20.482;2023-04-25T12:19:24;3.20;;;1.75;;
21152;SDS011;10734;44.792;20.482;2023-04-25T12:21:52;3.88;;;1.50;;
21152;SDS011;10734;44.792;20.482;2023-04-25T12:24:24;2.45;;;1.52;;
21152;SDS011;10734;44.792;20.482;2023-04-25T12:29:28;3.42;;;2.00;;
21152;SDS011;10734;44.792;20.482;2023-04-25T12:32:00;3.40;;;1.30;;
21152;SDS011;10734;44.792;20.482;2023-04-25T12:34:31;4.72;;;1.92;;
21152;SDS011;10734;44.792;20.482;2023-04-25T12:36:58;2.55;;;1.52;;
21152;SDS011;10734;44.792;20.482;2023-04-25T12:39:25;2.22;;;1.30;;
21152;SDS011;10734;44.792;20.482;2023-04-25T12:41:52;3.40;;;1.95;;
21152;SDS011;10734;44.792;20.482;2023-04-25T12:44:22;4.10;;;1.60;;
21152;SDS011;10734;44.792;20.482;2023-04-25T12:46:48;3.05;;;1.27;;
21152;SDS011;10734;44.792;20.482;2023-04-25T12:49:16;1.95;;;1.30;;
21152;SDS011;10734;44.792;20.482;2023-04-25T12:51:44;5.43;;;1.10;;
21152;SDS011;10734;44.792;20.482;2023-04-25T12:54:11;6.30;;;1.40;;
21152;SDS011;10734;44.792;20.482;2023-04-25T12:56:38;5.38;;;1.25;;
21152;SDS011;10734;44.792;20.482;2023-04-25T12:59:04;4.53;;;1.58;;
21152;SDS011;10734;44.792;20.482;2023-04-25T13:01:31;6.07;;;1.35;;
21152;SDS011;10734;44.792;20.482;2023-04-25T13:04:00;3.00;;;1.25;;
21152;SDS011;10734;44.792;20.482;2023-04-25T13:06:26;8.70;;;3.97;;
21152;SDS011;10734;44.792;20.482;2023-04-25T13:08:53;8.57;;;1.85;;
21152;SDS011;10734;44.792;20.482;2023-04-25T13:11:20;2.85;;;1.55;;
21152;SDS011;10734;44.792;20.482;2023-04-25T13:13:47;3.03;;;1.33;;
21152;SDS011;10734;44.792;20.482;2023-04-25T13:16:14;9.65;;;3.65;;
21152;SDS011;10734;44.792;20.482;2023-04-25T13:18:41;3.55;;;1.80;;
21152;SDS011;10734;44.792;20.482;2023-04-25T13:21:09;4.85;;;1.40;;
21152;SDS011;10734;44.792;20.482;2023-04-25T13:23:37;2.83;;;1.40;;
21152;SDS011;10734;44.792;20.482;2023-04-25T13:26:04;2.92;;;1.48;;
21152;SDS011;10734;44.792;20.482;2023-04-25T13:28:31;6.95;;;1.45;;
21152;SDS011;10734;44.792;20.482;2023-04-25T13:30:57;1.70;;;1.23;;
21152;SDS011;10734;44.792;20.482;2023-04-25T13:33:24;4.88;;;1.83;;
21152;SDS011;10734;44.792;20.482;2023-04-25T13:35:52;8.30;;;1.88;;
21152;SDS011;10734;44.792;20.482;2023-04-25T13:38:24;4.82;;;2.60;;
21152;SDS011;10734;44.792;20.482;2023-04-25T13:40:51;4.35;;;1.65;;
21152;SDS011;10734;44.792;20.482;2023-04-25T13:43:19;1.80;;;1.50;;
21152;SDS011;10734;44.792;20.482;2023-04-25T13:45:48;3.47;;;2.22;;
21152;SDS011;10734;44.792;20.482;2023-04-25T13:48:16;2.65;;;1.95;;
21152;SDS011;10734;44.792;20.482;2023-04-25T13:50:43;3.00;;;1.60;;
21152;SDS011;10734;44.792;20.482;2023-04-25T13:53:09;3.30;;;1.52;;
21152;SDS011;10734;44.792;20.482;2023-04-25T13:55:36;3.92;;;1.60;;
21152;SDS011;10734;44.792;20.482;2023-04-25T13:58:04;2.60;;;1.35;;
21152;SDS011;10734;44.792;20.482;2023-04-25T14:00:37;5.78;;;2.28;;
21152;SDS011;10734;44.792;20.482;2023-04-25T14:03:06;3.20;;;1.80;;
21152;SDS011;10734;44.792;20.482;2023-04-25T14:05:36;7.25;;;2.10;;
21152;SDS011;10734;44.792;20.482;2023-04-25T14:08:05;8.30;;;1.88;;
21152;SDS011;10734;44.792;20.482;2023-04-25T14:10:33;3.67;;;1.30;;
21152;SDS011;10734;44.792;20.482;2023-04-25T14:13:01;2.97;;;1.65;;
21152;SDS011;10734;44.792;20.482;2023-04-25T14:15:32;4.30;;;1.70;;
21152;SDS011;10734;44.792;20.482;2023-04-25T14:18:00;4.35;;;1.67;;
21152;SDS011;10734;44.792;20.482;2023-04-25T14:20:27;2.53;;;1.58;;
21152;SDS011;10734;44.792;20.482;2023-04-25T14:22:55;5.10;;;1.63;;
21152;SDS011;10734;44.792;20.482;2023-04-25T14:25:24;2.72;;;1.83;;
21152;SDS011;10734;44.792;20.482;2023-04-25T14:27:51;2.45;;;1.40;;
21152;SDS011;10734;44.792;20.482;2023-04-25T14:30:19;3.78;;;1.25;;
21152;SDS011;10734;44.792;20.482;2023-04-25T14:32:48;2.58;;;1.50;;
21152;SDS011;10734;44.792;20.482;2023-04-25T14:35:16;2.00;;;1.60;;
21152;SDS011;10734;44.792;20.482;2023-04-25T14:37:43;4.85;;;2.00;;
21152;SDS011;10734;44.792;20.482;2023-04-25T14:40:10;4.60;;;1.63;;
21152;SDS011;10734;44.792;20.482;2023-04-25T14:42:39;4.03;;;1.55;;
21152;SDS011;10734;44.792;20.482;2023-04-25T14:45:07;2.45;;;1.60;;
21152;SDS011;10734;44.792;20.482;2023-04-25T14:47:35;2.15;;;1.67;;
21152;SDS011;10734;44.792;20.482;2023-04-25T14:50:03;7.38;;;1.73;;